Yorkville, CA

1:10 AM PDT on September 18, 2014 (GMT -0700)
HADS YORKVILLE 1WNW (YOR) CA US CADWR | Change Station
CLOSE
Current Station
Personal Weather Station
Location: Yorkville, CA
Elevation: 1100 ft
Nearby Weather Stations

Elev 1100 ft 38.91 °N, 123.23 °W | Updated 1 hour ago

Overcast
Overcast
60 °F
Feels Like 60 °F
N
Wind Variable Wind from North
Gusts 0.0 mph

Today
High -- | Low -- °F
--% Chance of Precip.
Yesterday
High -- | Low -- °F
Precip. -- in
6:57 AM 7:16 PM
Waning Crescent, 29% visible
Pressure 29.77 in
Visibility 5.0 miles
Clouds Scattered Clouds 300 ft
Overcast 1800 ft
Dew Point Not available.
Humidity Not available.
Rainfall 0.16 in
Snow Depth Not available.
UV 0 out of 12
Pollen 6.20 out of 12
Air Quality Not available.
Flu Activity Not available.
SPECI KUKI 180754Z AUTO 16004KT 5SM BR SCT003 OVC018 17/16 A2977 RMK AO2 RAB02E40 P0000

More Conditions Fewer Conditions

Pressure 29.77 in
Visibility 5.0 miles
Clouds Scattered Clouds 300 ft
Overcast 1800 ft
Dew Point Not available.
Humidity Not available.
Rainfall 0.16 in
Snow Depth Not available.
UV 0 out of 12
Pollen 6.20 out of 12
Air Quality Not available.
Flu Activity Not available.
SPECI KUKI 180754Z AUTO 16004KT 5SM BR SCT003 OVC018 17/16 A2977 RMK AO2 RAB02E40 P0000

More Conditions Fewer Conditions

10-Day Weather Forecast

Almanac

Astronomy

Sep. 18, 2014 Rise Set
Actual Time 6:57 AM PDT 7:16 PM PDT
Civil Twilight 6:30 AM PDT 7:42 PM PDT
Nautical Twilight 5:59 AM PDT 8:14 PM PDT
Astronomical Twilight 5:27 AM PDT 8:45 PM PDT
Moon 1:56 AM PDT 4:09 PM PDT
Length of Visible Light 13h 12m
Length of Day
12h 19m
Tomorrow will be 2m 30s shorter.
Waning Crescent, 29% of the Moon is Illuminated
Today
Waning Crescent
Sep 24
New
Oct 1
First Quarter
Oct 8
Full
Oct 15
Last Quarter

Today's Extremes

State Highs State Lows

Community

WunderPhotos

Upload Photos

1,754,307 photos uploaded!

Nearby

Snow Depth

Station Depth Elevation
Monitor Pass 0 in 8350 ft
Adin Mountain 1 in 6200 ft
Echo Peak 1 in 7800 ft
Forestdale Creek 0 in 8029 ft
Tahoe City Cross 0 in 6750 ft

Earthquake Activity

City Distance Mag. Time & Date
The Geysers, California 29 miles 2.5 11:29 PM PDT
2014-09-17
Cobb, California 28 miles 2.7 1:23 PM PDT
2014-09-16
Minimum magnitude displayed is 2.5.

Coastal Water Temperatures

Place Temperature
Point Reyes, CA 62.1 °F
Arena Cove, CA 61.0 °F
San Francisco, CA 64.0 °F
Richmond, CA 69.1 °F

Nearby Weather Stations